createdAt,value
2019-06-09T00:01:32.333Z,1.80
2019-06-09T00:03:48.664Z,2.03
2019-06-09T00:06:17.765Z,2.00
2019-06-09T00:08:48.289Z,1.90
2019-06-09T00:11:17.451Z,2.53
2019-06-09T00:13:47.209Z,1.90
2019-06-09T00:16:18.167Z,2.37
2019-06-09T00:18:48.448Z,2.50
2019-06-09T00:21:18.783Z,2.07
2019-06-09T00:23:47.998Z,2.87
2019-06-09T00:26:17.794Z,1.87
2019-06-09T00:28:47.238Z,2.30
2019-06-09T00:31:43.894Z,2.37
2019-06-09T00:33:58.451Z,2.47
2019-06-09T00:36:27.913Z,2.53
2019-06-09T00:38:57.772Z,2.17
2019-06-09T00:41:44.269Z,2.20
2019-06-09T00:44:13.574Z,2.30
2019-06-09T00:46:42.621Z,2.27
2019-06-09T00:49:12.936Z,1.93
2019-06-09T00:51:42.235Z,2.30
2019-06-09T00:54:14.338Z,2.40
2019-06-09T00:56:41.627Z,2.57
2019-06-09T00:59:14.065Z,2.17
2019-06-09T01:01:55.966Z,2.00
2019-06-09T01:04:13.189Z,2.63
2019-06-09T01:06:42.613Z,1.80
2019-06-09T01:09:13.353Z,2.07
2019-06-09T01:11:42.773Z,2.10
2019-06-09T01:14:12.713Z,2.20
2019-06-09T01:16:42.139Z,2.50
2019-06-09T01:19:12.215Z,2.10
2019-06-09T01:21:41.396Z,2.07
2019-06-09T01:24:10.539Z,3.00
2019-06-09T01:26:39.529Z,2.20
2019-06-09T01:29:10.437Z,2.13
2019-06-09T01:31:39.024Z,2.07
2019-06-09T01:34:08.074Z,2.80
2019-06-09T01:36:37.393Z,2.50
2019-06-09T01:39:07.814Z,2.47
2019-06-09T01:41:37.771Z,2.63
2019-06-09T01:44:07.935Z,2.40
2019-06-09T01:46:38.253Z,2.30
2019-06-09T01:49:07.330Z,2.27
2019-06-09T01:51:37.630Z,2.47
2019-06-09T01:54:08.004Z,2.27
2019-06-09T01:56:37.515Z,2.33
2019-06-09T01:59:07.984Z,2.13
2019-06-09T02:01:37.731Z,2.53
2019-06-09T02:04:07.773Z,1.93
2019-06-09T02:06:38.095Z,2.27
2019-06-09T02:09:07.481Z,2.50
2019-06-09T02:11:37.983Z,2.00
2019-06-09T02:14:08.319Z,2.40
2019-06-09T02:16:37.938Z,2.70
2019-06-09T02:19:08.249Z,2.27
2019-06-09T02:21:37.647Z,2.40
2019-06-09T02:24:08.244Z,2.50
2019-06-09T02:26:37.503Z,2.90
2019-06-09T02:29:07.628Z,2.53
2019-06-09T02:31:42.398Z,2.47
2019-06-09T02:34:09.711Z,2.40
2019-06-09T02:36:43.687Z,2.43
2019-06-09T02:39:08.638Z,3.00
2019-06-09T02:41:37.594Z,2.40
2019-06-09T02:44:06.575Z,3.07
2019-06-09T02:46:56.116Z,2.63
2019-06-09T02:49:31.519Z,2.70
2019-06-09T02:51:55.647Z,3.13
2019-06-09T02:54:31.552Z,2.77
2019-06-09T02:56:55.190Z,2.70
2019-06-09T02:59:29.538Z,2.33
2019-06-09T03:01:56.179Z,2.17
2019-06-09T03:04:31.343Z,2.93
2019-06-09T03:06:55.933Z,2.87
2019-06-09T03:09:30.731Z,2.73
2019-06-09T03:11:55.320Z,2.50
2019-06-09T03:14:28.138Z,2.23
2019-06-09T03:16:54.847Z,2.37
2019-06-09T03:19:30.075Z,2.30
2019-06-09T03:21:54.246Z,2.20
2019-06-09T03:24:27.200Z,2.60
2019-06-09T03:26:54.047Z,2.70
2019-06-09T03:29:27.513Z,2.60
2019-06-09T03:32:21.902Z,2.73
2019-06-09T03:39:29.299Z,2.47
2019-06-09T03:41:55.866Z,2.20
2019-06-09T03:44:29.010Z,2.53
2019-06-09T03:46:55.343Z,2.53
2019-06-09T03:49:27.774Z,2.60
2019-06-09T03:51:54.770Z,2.50
2019-06-09T03:54:28.444Z,2.83
2019-06-09T03:56:54.206Z,4.80
2019-06-09T03:59:27.875Z,2.60
2019-06-09T04:01:53.594Z,2.90
2019-06-09T04:04:26.883Z,2.57
2019-06-09T04:07:01.030Z,2.43
2019-06-09T04:09:26.122Z,2.27
2019-06-09T04:11:54.133Z,3.00
2019-06-09T04:14:27.046Z,2.17
2019-06-09T04:16:54.316Z,2.70
2019-06-09T04:19:27.178Z,2.30
2019-06-09T04:21:53.349Z,2.50
2019-06-09T04:24:24.389Z,2.70
2019-06-09T04:26:52.401Z,2.60
2019-06-09T04:29:21.928Z,2.63
2019-06-09T04:31:54.210Z,2.40
2019-06-09T04:34:24.838Z,2.63
2019-06-09T04:37:01.609Z,2.50
2019-06-09T04:39:25.836Z,2.63
2019-06-09T04:41:54.118Z,2.90
2019-06-09T04:44:22.935Z,2.77
2019-06-09T04:46:52.491Z,2.20
2019-06-09T04:49:22.222Z,2.40
2019-06-09T04:51:53.231Z,2.37
2019-06-09T04:54:22.169Z,2.77
2019-06-09T04:56:53.033Z,3.10
2019-06-09T04:59:23.134Z,2.87
2019-06-09T05:01:53.587Z,2.63
2019-06-09T05:04:23.318Z,2.13
2019-06-09T05:07:07.404Z,2.43
2019-06-09T05:09:23.256Z,2.30
2019-06-09T05:11:54.060Z,2.33
2019-06-09T05:14:23.455Z,2.70
2019-06-09T05:16:53.322Z,2.43
2019-06-09T05:19:22.860Z,2.53
2019-06-09T05:21:57.919Z,3.03
2019-06-09T05:24:22.449Z,2.50
2019-06-09T05:26:52.614Z,2.60
2019-06-09T05:29:22.182Z,3.03
2019-06-09T05:31:52.048Z,2.70
2019-06-09T05:34:22.424Z,1.80
2019-06-09T05:37:09.305Z,2.40
2019-06-09T05:39:23.318Z,2.43
2019-06-09T05:41:52.415Z,2.57
2019-06-09T05:44:21.726Z,2.40
2019-06-09T05:46:51.722Z,2.60
2019-06-09T05:49:21.653Z,2.17
2019-06-09T05:51:52.486Z,3.03
2019-06-09T05:54:21.600Z,2.27
2019-06-09T05:56:51.841Z,2.27
2019-06-09T05:59:21.699Z,2.07
2019-06-09T06:01:51.889Z,2.00
2019-06-09T06:04:21.903Z,2.40
2019-06-09T06:06:51.918Z,2.00
2019-06-09T06:09:21.352Z,2.00
2019-06-09T06:11:51.853Z,2.07
2019-06-09T06:14:21.711Z,2.20
2019-06-09T06:16:51.589Z,1.70
2019-06-09T06:19:21.778Z,1.90
2019-06-09T06:21:51.733Z,2.10
2019-06-09T06:24:22.050Z,2.23
2019-06-09T06:26:51.595Z,1.93
2019-06-09T06:29:21.080Z,2.40
2019-06-09T06:31:52.354Z,1.90
2019-06-09T06:34:21.389Z,2.50
2019-06-09T06:36:51.928Z,2.00
2019-06-09T06:39:21.253Z,1.87
2019-06-09T06:41:51.793Z,2.10
2019-06-09T06:44:21.045Z,1.50
2019-06-09T06:46:55.634Z,1.87
2019-06-09T06:49:21.154Z,1.73
2019-06-09T06:51:51.704Z,1.50
2019-06-09T06:54:21.378Z,1.30
2019-06-09T06:56:51.492Z,2.60
2019-06-09T06:59:21.735Z,1.80
2019-06-09T07:01:55.693Z,1.40
2019-06-09T07:04:21.840Z,1.57
2019-06-09T07:06:51.611Z,1.60
2019-06-09T07:09:21.828Z,1.50
2019-06-09T07:11:53.359Z,1.57
2019-06-09T07:14:21.543Z,1.30
2019-06-09T07:16:51.619Z,1.27
2019-06-09T07:19:21.104Z,1.80
2019-06-09T07:21:53.415Z,1.20
2019-06-09T07:24:21.449Z,1.27
2019-06-09T07:27:01.995Z,1.37
2019-06-09T07:29:32.360Z,1.23
2019-06-09T07:32:02.827Z,1.43
2019-06-09T07:34:32.011Z,1.00
2019-06-09T07:37:01.870Z,1.93
2019-06-09T07:39:31.930Z,1.73
2019-06-09T07:42:01.410Z,1.60
2019-06-09T07:44:30.967Z,1.10
2019-06-09T07:47:01.511Z,1.00
2019-06-09T07:49:32.119Z,1.40
2019-06-09T07:52:01.684Z,1.30
2019-06-09T07:54:31.545Z,0.90
2019-06-09T07:57:00.949Z,1.13
2019-06-09T07:59:31.620Z,1.20
2019-06-09T08:02:03.389Z,1.23
2019-06-09T08:04:32.237Z,1.13
2019-06-09T08:07:01.465Z,1.20
2019-06-09T08:09:30.712Z,1.17
2019-06-09T08:12:01.523Z,1.50
2019-06-09T08:14:31.991Z,1.17
2019-06-09T08:17:02.826Z,1.40
2019-06-09T08:19:31.891Z,1.13
2019-06-09T08:22:01.733Z,1.17
2019-06-09T08:24:32.267Z,1.40
2019-06-09T08:27:02.073Z,1.50
2019-06-09T08:29:31.321Z,1.10
2019-06-09T08:32:01.320Z,1.10
2019-06-09T08:34:31.288Z,1.03
2019-06-09T08:37:01.535Z,1.10
2019-06-09T08:39:35.414Z,1.20
2019-06-09T08:42:04.504Z,1.20
2019-06-09T08:44:33.746Z,1.10
2019-06-09T08:47:02.736Z,0.90
2019-06-09T08:49:31.710Z,1.00
2019-06-09T08:52:01.621Z,0.90
2019-06-09T08:54:31.287Z,1.40
2019-06-09T08:57:01.132Z,1.10
2019-06-09T08:59:31.936Z,1.13
2019-06-09T09:02:01.193Z,1.07
2019-06-09T09:04:31.214Z,1.30
2019-06-09T09:07:00.735Z,1.77
2019-06-09T09:09:32.505Z,0.97
2019-06-09T09:12:01.572Z,1.43
2019-06-09T09:14:32.382Z,1.17
2019-06-09T09:17:01.613Z,1.00
2019-06-09T09:19:31.112Z,1.47
2019-06-09T09:22:01.345Z,1.27
2019-06-09T09:24:51.990Z,0.97
2019-06-09T09:27:06.792Z,1.20
2019-06-09T09:29:31.674Z,1.13
2019-06-09T09:32:01.680Z,1.20
2019-06-09T09:34:31.879Z,0.93
2019-06-09T09:37:01.708Z,1.10
2019-06-09T09:39:35.175Z,1.03
2019-06-09T09:42:01.697Z,1.70
2019-06-09T09:44:31.793Z,1.20
2019-06-09T09:47:02.196Z,1.20
2019-06-09T09:49:32.533Z,1.10
2019-06-09T09:52:02.187Z,1.47
2019-06-09T09:54:31.434Z,0.90
2019-06-09T09:57:01.676Z,1.03
2019-06-09T09:59:31.545Z,1.03
2019-06-09T10:02:00.952Z,1.50
2019-06-09T10:04:30.917Z,1.10
2019-06-09T10:07:00.141Z,1.70
2019-06-09T10:09:45.974Z,1.13
2019-06-09T10:12:02.400Z,1.37
2019-06-09T10:14:30.810Z,1.10
2019-06-09T10:17:01.948Z,1.13
2019-06-09T10:19:31.859Z,1.10
2019-06-09T10:22:02.868Z,1.23
2019-06-09T10:24:31.638Z,1.30
2019-06-09T10:27:02.401Z,1.30
2019-06-09T10:29:31.934Z,1.20
2019-06-09T10:32:02.175Z,1.33
2019-06-09T10:34:31.747Z,1.30
2019-06-09T10:37:03.619Z,1.03
2019-06-09T10:39:33.771Z,1.53
2019-06-09T10:42:03.937Z,1.10
2019-06-09T10:44:35.324Z,1.10
2019-06-09T10:47:09.077Z,1.50
2019-06-09T10:49:34.075Z,1.37
2019-06-09T10:52:04.499Z,1.43
2019-06-09T10:54:33.549Z,1.27
2019-06-09T10:57:04.488Z,1.27
2019-06-09T10:59:33.288Z,1.17
2019-06-09T11:02:04.418Z,1.40
2019-06-09T11:04:32.701Z,1.33
2019-06-09T11:07:04.087Z,1.10
2019-06-09T11:09:32.128Z,1.30
2019-06-09T11:12:03.589Z,1.17
2019-06-09T11:14:31.752Z,0.97
2019-06-09T11:17:06.030Z,1.00
2019-06-09T11:19:35.189Z,1.10
2019-06-09T11:22:03.809Z,1.20
2019-06-09T11:24:32.682Z,1.30
2019-06-09T11:27:07.070Z,1.07
2019-06-09T11:29:32.200Z,0.90
2019-06-09T11:32:03.607Z,1.13
2019-06-09T11:34:31.746Z,0.90
2019-06-09T11:37:04.943Z,1.23
2019-06-09T11:39:31.698Z,1.20
2019-06-09T11:42:03.239Z,1.40
2019-06-09T11:44:31.184Z,1.20
2019-06-09T11:47:04.318Z,1.00
2019-06-09T11:49:30.622Z,1.17
2019-06-09T11:52:05.516Z,1.23
2019-06-09T11:54:30.196Z,1.23
2019-06-09T11:57:00.010Z,1.07
2019-06-09T11:59:29.708Z,1.10
2019-06-09T12:02:00.116Z,1.17
2019-06-09T12:04:30.908Z,1.33
2019-06-09T12:07:03.291Z,1.00
2019-06-09T12:09:30.384Z,1.10
2019-06-09T12:12:02.224Z,1.50
2019-06-09T12:14:29.830Z,1.30
2019-06-09T12:17:01.322Z,1.30
2019-06-09T12:19:29.289Z,0.90
2019-06-09T12:22:00.927Z,1.33
2019-06-09T12:24:28.856Z,1.20
2019-06-09T12:26:59.714Z,1.00
2019-06-09T12:29:30.809Z,1.00
2019-06-09T12:32:00.507Z,1.27
2019-06-09T12:34:31.598Z,1.20
2019-06-09T12:37:03.890Z,1.23
2019-06-09T12:39:30.834Z,1.20
2019-06-09T12:42:01.529Z,0.93
2019-06-09T12:44:31.948Z,0.90
2019-06-09T12:47:03.161Z,1.27
2019-06-09T12:49:32.219Z,1.03
2019-06-09T12:52:04.435Z,1.00
2019-06-09T12:54:44.657Z,1.17
2019-06-09T12:57:04.832Z,1.27
2019-06-09T12:59:33.912Z,1.27
2019-06-09T13:02:05.293Z,1.47
2019-06-09T13:04:33.506Z,1.23
2019-06-09T13:07:02.938Z,1.00
2019-06-09T13:09:32.893Z,0.93
2019-06-09T13:12:03.864Z,1.30
2019-06-09T13:14:33.327Z,1.00
2019-06-09T13:17:04.391Z,1.10
2019-06-09T13:19:32.867Z,1.63
2019-06-09T13:22:04.065Z,1.47
2019-06-09T13:24:32.370Z,0.90
2019-06-09T13:27:03.795Z,1.20
2019-06-09T13:29:31.907Z,1.50
2019-06-09T13:32:01.991Z,1.00
2019-06-09T13:34:31.599Z,1.30
2019-06-09T13:37:02.792Z,1.07
2019-06-09T13:39:31.132Z,1.10
2019-06-09T13:42:01.290Z,1.20
2019-06-09T13:44:30.811Z,1.27
2019-06-09T13:46:59.751Z,1.20
2019-06-09T13:49:31.144Z,1.30
2019-06-09T13:52:01.235Z,1.10
2019-06-09T13:54:29.631Z,0.90
2019-06-09T13:57:01.275Z,0.90
2019-06-09T13:59:30.163Z,1.00
2019-06-09T14:02:03.255Z,1.17
2019-06-09T14:04:31.778Z,1.10
2019-06-09T14:07:00.886Z,1.20
2019-06-09T14:09:31.318Z,1.30
2019-06-09T14:12:05.125Z,1.27
2019-06-09T14:14:32.126Z,0.97
2019-06-09T14:17:01.166Z,0.97
2019-06-09T14:19:30.857Z,1.40
2019-06-09T14:22:01.428Z,1.47
2019-06-09T14:24:31.106Z,1.03
2019-06-09T14:27:01.015Z,1.47
2019-06-09T14:29:31.014Z,1.50
2019-06-09T14:32:10.823Z,1.10
2019-06-09T14:34:31.628Z,1.40
2019-06-09T14:37:00.585Z,1.07
2019-06-09T14:39:30.742Z,1.07
2019-06-09T14:42:17.071Z,1.37
2019-06-09T14:44:30.434Z,1.00
2019-06-09T14:47:00.638Z,3.70
2019-06-09T14:49:31.761Z,1.47
2019-06-09T14:52:01.387Z,1.20
2019-06-09T14:54:31.461Z,1.20
2019-06-09T14:57:16.826Z,1.43
2019-06-09T14:59:32.222Z,1.30
2019-06-09T15:02:01.170Z,1.20
2019-06-09T15:04:31.328Z,1.00
2019-06-09T15:07:00.612Z,1.03
2019-06-09T15:09:30.988Z,1.50
2019-06-09T15:12:01.467Z,1.40
2019-06-09T15:14:30.532Z,1.50
2019-06-09T15:17:01.331Z,1.60
2019-06-09T15:19:31.096Z,1.37
2019-06-09T15:22:01.416Z,1.30
2019-06-09T15:24:31.229Z,1.33
2019-06-09T15:27:00.642Z,1.37
2019-06-09T15:29:31.126Z,1.10
2019-06-09T15:32:00.861Z,1.63
2019-06-09T15:34:31.050Z,1.07
2019-06-09T15:37:00.079Z,1.23
2019-06-09T15:39:28.902Z,1.30
2019-06-09T15:41:57.804Z,1.90
2019-06-09T15:44:26.660Z,1.53
2019-06-09T15:47:01.466Z,1.73
2019-06-09T15:49:30.771Z,1.33
2019-06-09T15:52:01.446Z,2.53
2019-06-09T15:54:31.014Z,2.10
2019-06-09T15:57:00.827Z,2.07
2019-06-09T15:59:31.888Z,1.80
2019-06-09T16:02:01.514Z,2.23
2019-06-09T16:04:31.377Z,2.00
2019-06-09T16:07:01.981Z,2.40
2019-06-09T16:09:31.534Z,2.17
2019-06-09T16:12:00.831Z,1.50
2019-06-09T16:14:30.678Z,1.40
2019-06-09T16:16:59.617Z,1.90
2019-06-09T16:19:28.494Z,1.70
2019-06-09T16:21:57.317Z,1.90
2019-06-09T16:24:39.193Z,1.80
2019-06-09T16:26:56.696Z,1.70
2019-06-09T16:29:26.156Z,1.60
2019-06-09T16:31:56.199Z,1.50
2019-06-09T16:34:26.382Z,1.87
2019-06-09T16:36:55.700Z,2.40
2019-06-09T16:39:25.451Z,1.90
2019-06-09T16:41:55.365Z,2.03
2019-06-09T16:44:25.578Z,2.10
2019-06-09T16:46:54.812Z,2.10
2019-06-09T16:49:26.300Z,1.90
2019-06-09T16:51:54.331Z,2.07
2019-06-09T16:54:25.375Z,1.73
2019-06-09T16:56:54.038Z,1.57
2019-06-09T16:59:25.495Z,2.07
2019-06-09T17:01:53.913Z,1.70
2019-06-09T17:04:29.197Z,1.87
2019-06-09T17:07:04.410Z,2.20
2019-06-09T17:09:27.426Z,1.73
2019-06-09T17:11:55.575Z,2.30
2019-06-09T17:14:25.730Z,1.70
2019-06-09T17:16:55.183Z,1.97
2019-06-09T17:19:28.054Z,1.60
2019-06-09T17:21:54.682Z,1.63
2019-06-09T17:24:27.353Z,2.00
2019-06-09T17:26:54.886Z,1.83
2019-06-09T17:29:24.855Z,2.10
2019-06-09T17:31:54.379Z,1.83
2019-06-09T17:34:23.983Z,2.20
2019-06-09T17:36:52.838Z,2.63
2019-06-09T17:39:23.572Z,1.87
2019-06-09T17:41:52.222Z,2.73
2019-06-09T17:44:23.426Z,2.40
2019-06-09T17:46:51.775Z,1.97
2019-06-09T17:49:21.204Z,2.10
2019-06-09T17:51:50.669Z,2.50
2019-06-09T17:54:21.524Z,2.40
2019-06-09T17:56:51.676Z,2.40
2019-06-09T17:59:20.779Z,2.07
2019-06-09T18:01:51.452Z,1.97
2019-06-09T18:04:21.599Z,2.07
2019-06-09T18:06:51.220Z,2.30
2019-06-09T18:09:21.698Z,1.97
2019-06-09T18:11:51.169Z,1.53
2019-06-09T18:14:27.384Z,2.27
2019-06-09T18:16:51.620Z,2.10
2019-06-09T18:19:21.106Z,1.97
2019-06-09T18:21:52.280Z,2.20
2019-06-09T18:24:21.462Z,2.20
2019-06-09T18:26:51.717Z,2.20
2019-06-09T18:29:20.796Z,2.70
2019-06-09T18:31:51.359Z,1.90
2019-06-09T18:34:20.318Z,2.77
2019-06-09T18:36:51.295Z,1.90
2019-06-09T18:39:20.420Z,2.73
2019-06-09T18:41:51.302Z,2.13
2019-06-09T18:44:21.755Z,2.27
2019-06-09T18:46:51.239Z,2.37
2019-06-09T18:49:21.797Z,2.47
2019-06-09T18:51:51.406Z,2.23
2019-06-09T18:54:21.038Z,2.00
2019-06-09T18:56:50.860Z,2.00
2019-06-09T18:59:21.329Z,1.80
2019-06-09T19:01:51.405Z,2.50
2019-06-09T19:04:21.473Z,1.90
2019-06-09T19:06:51.955Z,2.60
2019-06-09T19:09:21.443Z,2.40
2019-06-09T19:11:50.940Z,2.83
2019-06-09T19:14:20.015Z,2.20
2019-06-09T19:16:51.512Z,2.93
2019-06-09T19:19:21.851Z,3.30
2019-06-09T19:21:51.300Z,2.47
2019-06-09T19:24:20.820Z,2.20
2019-06-09T19:26:52.031Z,2.40
2019-06-09T19:29:21.337Z,2.67
2019-06-09T19:31:51.368Z,2.30
2019-06-09T19:34:22.007Z,2.40
2019-06-09T19:36:51.086Z,2.50
2019-06-09T19:39:22.005Z,3.00
2019-06-09T19:41:52.469Z,2.60
2019-06-09T19:44:21.870Z,2.20
2019-06-09T19:46:51.418Z,1.80
2019-06-09T19:49:24.243Z,2.30
2019-06-09T19:51:51.659Z,2.40
2019-06-09T19:54:21.165Z,2.47
2019-06-09T19:56:51.553Z,2.40
2019-06-09T19:59:22.397Z,2.47
2019-06-09T20:01:51.592Z,2.53
2019-06-09T20:04:21.946Z,2.50
2019-06-09T20:06:51.955Z,2.60
2019-06-09T20:09:21.942Z,2.40
2019-06-09T20:11:51.300Z,2.87
2019-06-09T20:14:20.950Z,2.70
2019-06-09T20:16:52.049Z,2.43
2019-06-09T20:19:21.355Z,2.60
2019-06-09T20:21:51.324Z,2.67
2019-06-09T20:24:21.362Z,2.13
2019-06-09T20:26:55.068Z,2.30
2019-06-09T20:29:21.332Z,2.13
2019-06-09T20:31:51.906Z,2.27
2019-06-09T20:34:22.133Z,2.20
2019-06-09T20:36:51.437Z,2.50
2019-06-09T20:39:22.396Z,2.43
2019-06-09T20:41:56.838Z,2.10
2019-06-09T20:44:21.606Z,2.10
2019-06-09T20:46:55.686Z,2.30
2019-06-09T20:49:23.536Z,2.70
2019-06-09T20:51:53.650Z,2.40
2019-06-09T20:54:22.405Z,2.10
2019-06-09T20:56:53.427Z,2.10
2019-06-09T20:59:22.098Z,2.37
2019-06-09T21:01:54.117Z,2.13
2019-06-09T21:04:22.471Z,2.00
2019-06-09T21:06:53.107Z,1.87
2019-06-09T21:09:22.014Z,1.83
2019-06-09T21:11:50.951Z,2.60
2019-06-09T21:14:21.383Z,1.97
2019-06-09T21:16:52.229Z,2.43
2019-06-09T21:19:21.265Z,2.53
2019-06-09T21:21:53.581Z,2.27
2019-06-09T21:24:21.160Z,2.33
2019-06-09T21:26:53.487Z,2.37
2019-06-09T21:29:21.156Z,1.90
2019-06-09T21:31:52.661Z,2.70
2019-06-09T21:34:21.560Z,2.10
2019-06-09T21:36:53.614Z,2.10
2019-06-09T21:39:21.579Z,2.20
2019-06-09T21:41:54.170Z,2.30
2019-06-09T21:44:21.340Z,2.37
2019-06-09T21:46:51.056Z,2.03
2019-06-09T21:49:21.066Z,2.67
2019-06-09T21:51:51.676Z,2.10
2019-06-09T21:54:21.793Z,2.20
2019-06-09T21:56:51.542Z,2.40
2019-06-09T21:59:21.342Z,2.17
2019-06-09T22:01:53.552Z,2.13
2019-06-09T22:04:21.807Z,2.27
2019-06-09T22:06:52.188Z,2.17
2019-06-09T22:09:21.987Z,2.40
2019-06-09T22:11:54.489Z,2.40
2019-06-09T22:14:21.860Z,2.17
2019-06-09T22:17:03.987Z,2.10
2019-06-09T22:19:21.308Z,2.50
2019-06-09T22:21:52.770Z,2.50
2019-06-09T22:24:21.678Z,2.70
2019-06-09T22:26:51.668Z,2.50
2019-06-09T22:29:21.618Z,2.23
2019-06-09T22:31:52.383Z,2.30
2019-06-09T22:34:21.415Z,2.43
2019-06-09T22:36:51.580Z,2.50
2019-06-09T22:39:21.598Z,2.47
2019-06-09T22:41:53.299Z,2.77
2019-06-09T22:44:21.176Z,2.17
2019-06-09T22:47:12.244Z,2.50
2019-06-09T22:49:21.037Z,2.57
2019-06-09T22:51:52.228Z,2.23
2019-06-09T22:54:20.864Z,2.30
2019-06-09T22:56:51.942Z,2.43
2019-06-09T22:59:21.515Z,2.40
2019-06-09T23:01:54.261Z,2.70
2019-06-09T23:04:21.494Z,2.43
2019-06-09T23:06:51.434Z,2.53
2019-06-09T23:09:20.869Z,3.07
2019-06-09T23:11:52.521Z,2.93
2019-06-09T23:14:21.415Z,3.50
2019-06-09T23:16:50.933Z,2.50
2019-06-09T23:19:21.477Z,2.20
2019-06-09T23:21:51.908Z,3.10
2019-06-09T23:24:21.290Z,2.70
2019-06-09T23:26:52.361Z,2.90
2019-06-09T23:29:25.383Z,2.97
2019-06-09T23:31:52.528Z,3.10
2019-06-09T23:34:21.538Z,2.70
2019-06-09T23:36:51.696Z,2.63
2019-06-09T23:39:21.267Z,2.30
2019-06-09T23:41:51.257Z,3.27
2019-06-09T23:44:21.094Z,2.90
2019-06-09T23:46:51.080Z,2.80
2019-06-09T23:49:21.232Z,2.97
2019-06-09T23:51:52.023Z,2.57
2019-06-09T23:54:21.113Z,2.60
2019-06-09T23:56:51.257Z,2.60
2019-06-09T23:59:21.282Z,2.30
